Time;durP1;ratioP1;P1;durP2;ratioP2;P2;SDS_P1;SDS_P2;PMS_P1;PMS_P2;Temp;Humidity;BMP_temperature;BMP_pressure;BME280_temperature;BME280_humidity;BME280_pressure;Samples;Min_cycle;Max_cycle;Signal;HPM_P1;HPM_P2
2023/08/04 00:02:03;;;;;;;0.00;0.00;;;;;;;;;;5092050;28;20031;-82
2023/08/04 00:04:29;;;;;;;0.10;0.10;;;;;;;;;;5091857;28;20472;-82
2023/08/04 00:06:55;;;;;;;0.10;0.10;;;;;;;;;;5092052;28;20051;-82
2023/08/04 00:09:22;;;;;;;0.00;0.00;;;;;;;;;;5091640;28;20548;-83
2023/08/04 00:11:48;;;;;;;0.20;0.20;;;;;;;;;;5091425;28;20060;-82
2023/08/04 00:14:14;;;;;;;0.08;0.08;;;;;;;;;;5091937;28;20105;-82
2023/08/04 00:16:40;;;;;;;0.00;0.00;;;;;;;;;;5091535;28;20024;-83
2023/08/04 00:19:06;;;;;;;0.00;0.00;;;;;;;;;;5091645;28;20032;-82
2023/08/04 00:21:32;;;;;;;0.00;0.00;;;;;;;;;;5092038;28;20047;-82
2023/08/04 00:23:58;;;;;;;0.10;0.10;;;;;;;;;;5091934;28;20069;-82
2023/08/04 00:26:24;;;;;;;0.00;0.00;;;;;;;;;;5095769;28;20101;-82
2023/08/04 00:28:50;;;;;;;0.00;0.00;;;;;;;;;;5095609;28;20099;-82
2023/08/04 00:31:16;;;;;;;0.03;0.03;;;;;;;;;;5095223;28;20131;-83
2023/08/04 00:33:42;;;;;;;0.00;0.00;;;;;;;;;;5095595;28;20042;-83
2023/08/04 00:36:08;;;;;;;0.10;0.10;;;;;;;;;;5095458;28;20028;-83
2023/08/04 00:38:34;;;;;;;0.00;0.00;;;;;;;;;;5095453;28;20201;-82
2023/08/04 00:41:00;;;;;;;0.00;0.00;;;;;;;;;;5095475;28;20024;-82
2023/08/04 00:43:27;;;;;;;0.03;0.03;;;;;;;;;;5095468;28;20024;-82
2023/08/04 00:45:53;;;;;;;0.10;0.10;;;;;;;;;;5095030;28;20024;-83
2023/08/04 00:48:19;;;;;;;0.05;0.05;;;;;;;;;;5095614;28;20047;-82
2023/08/04 00:50:45;;;;;;;0.00;0.00;;;;;;;;;;5094963;28;20066;-83
2023/08/04 00:53:13;;;;;;;0.00;0.00;;;;;;;;;;5094966;28;20492;-83
2023/08/04 00:55:41;;;;;;;0.10;0.10;;;;;;;;;;5094713;28;20024;-82
2023/08/04 00:58:07;;;;;;;0.00;0.00;;;;;;;;;;5095146;28;20032;-82
2023/08/04 01:00:33;;;;;;;0.00;0.00;;;;;;;;;;5095302;28;20030;-82
2023/08/04 01:02:59;;;;;;;0.30;0.30;;;;;;;;;;5095232;28;20020;-82
2023/08/04 01:05:29;;;;;;;0.10;0.10;;;;;;;;;;5094796;28;20031;-83
2023/08/04 01:08:14;;;;;;;0.00;0.00;;;;;;;;;;5094243;28;20024;-82
2023/08/04 01:11:03;;;;;;;0.03;0.03;;;;;;;;;;5094952;28;20503;-82
2023/08/04 01:13:29;;;;;;;0.00;0.00;;;;;;;;;;5081789;28;20569;-83
2023/08/04 01:15:56;;;;;;;0.00;0.00;;;;;;;;;;5094567;28;20046;-82
2023/08/04 01:18:22;;;;;;;0.10;0.10;;;;;;;;;;5094622;28;20098;-83
2023/08/04 01:20:49;;;;;;;0.00;0.00;;;;;;;;;;5094564;28;20020;-83
2023/08/04 01:23:16;;;;;;;0.00;0.00;;;;;;;;;;5093935;28;20093;-83
2023/08/04 01:25:42;;;;;;;0.00;0.00;;;;;;;;;;5094643;28;20026;-83
2023/08/04 01:28:15;;;;;;;0.00;0.00;;;;;;;;;;5094913;28;20028;-83
2023/08/04 01:30:46;;;;;;;0.00;0.00;;;;;;;;;;5094352;28;20047;-83
2023/08/04 01:33:12;;;;;;;0.08;0.08;;;;;;;;;;5094355;28;20514;-83
2023/08/04 01:35:38;;;;;;;0.00;0.00;;;;;;;;;;5093685;28;20427;-82
2023/08/04 01:38:04;;;;;;;0.10;0.10;;;;;;;;;;5093981;28;20542;-83
2023/08/04 01:40:30;;;;;;;0.00;0.00;;;;;;;;;;5094247;28;20510;-83
2023/08/04 01:42:56;;;;;;;0.08;0.08;;;;;;;;;;5093967;28;20059;-82
2023/08/04 01:45:22;;;;;;;0.10;0.10;;;;;;;;;;5094297;28;20024;-83
2023/08/04 01:47:49;;;;;;;0.13;0.13;;;;;;;;;;5094239;28;20020;-82
2023/08/04 01:50:15;;;;;;;0.00;0.00;;;;;;;;;;5093976;28;20266;-82
2023/08/04 01:52:41;;;;;;;0.10;0.10;;;;;;;;;;5093423;28;20036;-83
2023/08/04 01:55:07;;;;;;;0.00;0.00;;;;;;;;;;5093890;28;20028;-82
2023/08/04 01:57:33;;;;;;;0.00;0.00;;;;;;;;;;5093936;28;20032;-83
2023/08/04 01:59:59;;;;;;;0.00;0.00;;;;;;;;;;5094287;28;20055;-83
2023/08/04 02:02:25;;;;;;;0.10;0.10;;;;;;;;;;5093829;28;20032;-82
2023/08/04 02:04:51;;;;;;;0.00;0.00;;;;;;;;;;5093695;28;20020;-82
2023/08/04 02:07:17;;;;;;;0.00;0.00;;;;;;;;;;5093273;28;20104;-83
2023/08/04 02:09:43;;;;;;;0.00;0.00;;;;;;;;;;5093869;28;20032;-83
2023/08/04 02:12:09;;;;;;;0.00;0.00;;;;;;;;;;5093351;28;20032;-83
2023/08/04 02:14:35;;;;;;;0.00;0.00;;;;;;;;;;5093758;28;20024;-82
2023/08/04 02:17:01;;;;;;;0.10;0.10;;;;;;;;;;5093585;28;20032;-82
2023/08/04 02:19:27;;;;;;;0.00;0.00;;;;;;;;;;5093355;28;20027;-83
2023/08/04 02:21:53;;;;;;;0.00;0.00;;;;;;;;;;5092881;28;20115;-82
2023/08/04 02:24:19;;;;;;;0.00;0.00;;;;;;;;;;5093921;28;20016;-82
2023/08/04 02:26:45;;;;;;;0.10;0.10;;;;;;;;;;5093317;28;20036;-82
2023/08/04 02:29:11;;;;;;;0.00;0.00;;;;;;;;;;5093034;28;20089;-83
2023/08/04 02:31:38;;;;;;;0.00;0.00;;;;;;;;;;5093047;28;20036;-83
2023/08/04 02:34:04;;;;;;;0.00;0.00;;;;;;;;;;5093178;28;20028;-83
2023/08/04 02:36:30;;;;;;;0.13;0.13;;;;;;;;;;5093204;28;20098;-82
2023/08/04 02:38:56;;;;;;;0.00;0.00;;;;;;;;;;5093509;28;20416;-82
2023/08/04 02:41:22;;;;;;;0.10;0.10;;;;;;;;;;5092785;28;20195;-82
2023/08/04 02:43:48;;;;;;;0.20;0.20;;;;;;;;;;5092822;28;20028;-82
2023/08/04 02:46:14;;;;;;;0.00;0.00;;;;;;;;;;5093081;28;20107;-82
2023/08/04 02:48:41;;;;;;;0.00;0.00;;;;;;;;;;5091883;28;20024;-83
2023/08/04 02:51:08;;;;;;;0.10;0.10;;;;;;;;;;5108292;28;20032;-83
2023/08/04 02:53:34;;;;;;;0.00;0.00;;;;;;;;;;5092789;28;20032;-83
2023/08/04 02:56:01;;;;;;;0.10;0.10;;;;;;;;;;5092651;28;20499;-82
2023/08/04 02:58:27;;;;;;;1.30;0.25;;;;;;;;;;5092782;28;20103;-82
2023/08/04 03:00:53;;;;;;;0.00;0.00;;;;;;;;;;5092649;28;20035;-83
2023/08/04 03:03:19;;;;;;;0.10;0.10;;;;;;;;;;5092648;28;20460;-82
2023/08/04 03:05:46;;;;;;;0.00;0.00;;;;;;;;;;5092800;28;20024;-82
2023/08/04 03:08:12;;;;;;;0.00;0.00;;;;;;;;;;5092628;28;20028;-82
2023/08/04 03:10:41;;;;;;;0.10;0.10;;;;;;;;;;5092286;28;20047;-83
2023/08/04 03:13:07;;;;;;;0.10;0.10;;;;;;;;;;5092370;28;20056;-83
2023/08/04 03:15:34;;;;;;;0.35;0.35;;;;;;;;;;5092948;28;20472;-83
2023/08/04 03:18:00;;;;;;;0.10;0.10;;;;;;;;;;5092345;28;20111;-83
2023/08/04 03:20:26;;;;;;;0.00;0.00;;;;;;;;;;5092142;28;20040;-83
2023/08/04 03:22:52;;;;;;;0.00;0.00;;;;;;;;;;5092287;28;20027;-83
2023/08/04 03:25:18;;;;;;;0.00;0.00;;;;;;;;;;5092548;28;20025;-82
2023/08/04 03:27:44;;;;;;;0.00;0.00;;;;;;;;;;5092264;28;20120;-83
2023/08/04 03:30:10;;;;;;;0.20;0.20;;;;;;;;;;5092386;28;20052;-82
2023/08/04 03:32:36;;;;;;;0.00;0.00;;;;;;;;;;5092035;28;20120;-82
2023/08/04 03:35:02;;;;;;;0.10;0.10;;;;;;;;;;5092098;28;20028;-82
2023/08/04 03:37:28;;;;;;;0.45;0.15;;;;;;;;;;5092451;28;20024;-82
2023/08/04 03:39:54;;;;;;;0.00;0.00;;;;;;;;;;5091147;28;20120;-82
2023/08/04 03:42:20;;;;;;;0.10;0.10;;;;;;;;;;5091730;28;20480;-82
2023/08/04 03:44:46;;;;;;;0.00;0.00;;;;;;;;;;5092003;28;20028;-82
2023/08/04 03:47:12;;;;;;;0.00;0.00;;;;;;;;;;5090798;28;20052;-83
2023/08/04 03:49:38;;;;;;;0.10;0.10;;;;;;;;;;5091679;28;20530;-83
2023/08/04 03:52:04;;;;;;;0.10;0.10;;;;;;;;;;5092160;28;20119;-82
2023/08/04 03:54:30;;;;;;;0.10;0.10;;;;;;;;;;5091917;28;20024;-82
2023/08/04 03:56:56;;;;;;;0.10;0.10;;;;;;;;;;5092079;28;20479;-82
2023/08/04 03:59:22;;;;;;;0.00;0.00;;;;;;;;;;5093535;28;20052;-82
2023/08/04 04:01:48;;;;;;;0.00;0.00;;;;;;;;;;5096091;28;20060;-82
2023/08/04 04:04:14;;;;;;;0.00;0.00;;;;;;;;;;5095748;28;20028;-82
2023/08/04 04:06:40;;;;;;;0.00;0.00;;;;;;;;;;5096063;28;20105;-82
2023/08/04 04:09:06;;;;;;;0.00;0.00;;;;;;;;;;5095789;28;20036;-83
2023/08/04 04:11:32;;;;;;;0.00;0.00;;;;;;;;;;5095895;28;20031;-83
2023/08/04 04:13:58;;;;;;;0.00;0.00;;;;;;;;;;5095711;28;20034;-82
2023/08/04 04:16:26;;;;;;;0.00;0.00;;;;;;;;;;5095376;28;20035;-82
2023/08/04 04:18:52;;;;;;;0.10;0.10;;;;;;;;;;5095993;28;20381;-82
2023/08/04 04:21:19;;;;;;;0.00;0.00;;;;;;;;;;5095297;28;20032;-82
2023/08/04 04:23:45;;;;;;;0.00;0.00;;;;;;;;;;5095698;28;20065;-82
2023/08/04 04:26:11;;;;;;;0.00;0.00;;;;;;;;;;5095194;28;20115;-83
2023/08/04 04:28:37;;;;;;;0.00;0.00;;;;;;;;;;5094470;28;20043;-82
2023/08/04 04:31:04;;;;;;;0.10;0.10;;;;;;;;;;5094858;28;20134;-82
2023/08/04 04:33:30;;;;;;;0.10;0.10;;;;;;;;;;5095646;28;20050;-83
2023/08/04 04:35:56;;;;;;;0.10;0.10;;;;;;;;;;5095414;28;20395;-82
2023/08/04 04:38:27;;;;;;;0.10;0.10;;;;;;;;;;5095810;28;20020;-83
2023/08/04 04:41:01;;;;;;;0.10;0.10;;;;;;;;;;5095347;28;20127;-82
2023/08/04 04:43:27;;;;;;;0.10;0.10;;;;;;;;;;5095023;28;20081;-83
2023/08/04 04:45:55;;;;;;;0.10;0.10;;;;;;;;;;5094515;28;20020;-82
2023/08/04 04:48:21;;;;;;;0.10;0.10;;;;;;;;;;5095250;28;20028;-82
2023/08/04 04:50:47;;;;;;;0.10;0.10;;;;;;;;;;5095085;28;20020;-82
2023/08/04 04:53:13;;;;;;;0.10;0.10;;;;;;;;;;5077244;28;20120;-82
2023/08/04 04:55:40;;;;;;;0.10;0.10;;;;;;;;;;5095018;28;20031;-82
2023/08/04 04:58:06;;;;;;;0.00;0.00;;;;;;;;;;5095294;28;20476;-82
2023/08/04 05:00:34;;;;;;;0.00;0.00;;;;;;;;;;5094741;28;20095;-82
2023/08/04 05:03:00;;;;;;;0.00;0.00;;;;;;;;;;5095564;28;20048;-82
2023/08/04 05:05:29;;;;;;;0.00;0.00;;;;;;;;;;5094903;28;20021;-82
2023/08/04 05:07:55;;;;;;;0.10;0.10;;;;;;;;;;5094356;28;20081;-83
2023/08/04 05:10:21;;;;;;;0.00;0.00;;;;;;;;;;5093870;28;20110;-82
2023/08/04 05:12:47;;;;;;;0.10;0.10;;;;;;;;;;5094387;28;20547;-83
2023/08/04 05:15:13;;;;;;;0.10;0.10;;;;;;;;;;5094402;28;20027;-83
2023/08/04 05:17:39;;;;;;;0.38;0.38;;;;;;;;;;5094726;28;20035;-82
2023/08/04 05:20:06;;;;;;;0.05;0.05;;;;;;;;;;5094685;28;20077;-82
2023/08/04 05:22:32;;;;;;;0.20;0.20;;;;;;;;;;5076451;28;20028;-83
2023/08/04 05:24:58;;;;;;;0.10;0.10;;;;;;;;;;5094962;28;20046;-82
2023/08/04 05:27:24;;;;;;;0.08;0.08;;;;;;;;;;5094588;28;20039;-82
2023/08/04 05:29:50;;;;;;;0.03;0.03;;;;;;;;;;5094188;28;20040;-82
2023/08/04 05:32:16;;;;;;;0.10;0.10;;;;;;;;;;5094302;28;20092;-82
2023/08/04 05:34:42;;;;;;;0.20;0.20;;;;;;;;;;5094387;28;20024;-82
2023/08/04 05:37:08;;;;;;;0.10;0.10;;;;;;;;;;5094770;28;20396;-85
2023/08/04 05:39:34;;;;;;;0.10;0.10;;;;;;;;;;5094425;28;20016;-85
2023/08/04 05:42:01;;;;;;;0.10;0.10;;;;;;;;;;5094916;28;20032;-84
2023/08/04 05:44:27;;;;;;;0.43;0.35;;;;;;;;;;5093828;28;20065;-84
2023/08/04 05:46:53;;;;;;;0.00;0.00;;;;;;;;;;5094405;28;20024;-84
2023/08/04 05:49:19;;;;;;;0.00;0.00;;;;;;;;;;5094311;28;20091;-84
2023/08/04 05:51:45;;;;;;;0.25;0.13;;;;;;;;;;5094018;28;20165;-84
2023/08/04 05:54:11;;;;;;;0.00;0.00;;;;;;;;;;5094279;28;20391;-84
2023/08/04 05:56:37;;;;;;;0.10;0.10;;;;;;;;;;5093967;28;20114;-85
2023/08/04 05:59:03;;;;;;;0.30;0.30;;;;;;;;;;5094181;28;20020;-85
2023/08/04 06:01:29;;;;;;;0.10;0.10;;;;;;;;;;5094039;28;20028;-85
2023/08/04 06:03:55;;;;;;;0.10;0.10;;;;;;;;;;5093834;28;20020;-85
2023/08/04 06:06:21;;;;;;;0.13;0.13;;;;;;;;;;5094016;28;20046;-85
2023/08/04 06:08:47;;;;;;;0.20;0.20;;;;;;;;;;5093547;28;20523;-85
2023/08/04 06:11:14;;;;;;;0.10;0.10;;;;;;;;;;5093686;28;20039;-85
2023/08/04 06:13:40;;;;;;;0.10;0.10;;;;;;;;;;5093741;28;20032;-85
2023/08/04 06:16:06;;;;;;;0.10;0.10;;;;;;;;;;5093818;28;20107;-84
2023/08/04 06:18:32;;;;;;;0.10;0.10;;;;;;;;;;5093681;28;20514;-85
2023/08/04 06:20:58;;;;;;;0.10;0.10;;;;;;;;;;5093652;28;20025;-85
2023/08/04 06:23:24;;;;;;;0.47;0.20;;;;;;;;;;5093305;28;20031;-85
2023/08/04 06:25:51;;;;;;;0.10;0.10;;;;;;;;;;5093991;28;20044;-85
2023/08/04 06:28:17;;;;;;;0.10;0.10;;;;;;;;;;5093611;28;20384;-88
2023/08/04 06:30:43;;;;;;;0.00;0.00;;;;;;;;;;5092555;28;20056;-87
2023/08/04 06:33:09;;;;;;;0.10;0.10;;;;;;;;;;5109689;28;20177;-89
2023/08/04 06:35:35;;;;;;;0.00;0.00;;;;;;;;;;5093257;28;20024;-90
2023/08/04 06:38:01;;;;;;;0.00;0.00;;;;;;;;;;5093411;28;20072;-88
2023/08/04 06:40:27;;;;;;;0.10;0.10;;;;;;;;;;5108580;28;20495;-88
2023/08/04 06:42:53;;;;;;;0.32;0.32;;;;;;;;;;5093472;28;20016;-87
2023/08/04 06:45:19;;;;;;;0.05;0.05;;;;;;;;;;5092991;28;20031;-86
2023/08/04 06:47:45;;;;;;;0.00;0.00;;;;;;;;;;5092882;28;20372;-87
2023/08/04 06:50:11;;;;;;;0.32;0.32;;;;;;;;;;5092959;28;20031;-87
2023/08/04 06:52:37;;;;;;;0.00;0.00;;;;;;;;;;5093032;28;20032;-86
2023/08/04 06:55:03;;;;;;;0.10;0.10;;;;;;;;;;5093221;28;20398;-85
2023/08/04 06:57:29;;;;;;;0.10;0.10;;;;;;;;;;5091863;28;20032;-87
2023/08/04 06:59:55;;;;;;;0.15;0.15;;;;;;;;;;5092880;28;20076;-87
2023/08/04 07:02:21;;;;;;;0.00;0.00;;;;;;;;;;5088758;28;20035;-85
2023/08/04 07:04:47;;;;;;;0.00;0.00;;;;;;;;;;5093867;28;20501;-86
2023/08/04 07:07:13;;;;;;;0.10;0.10;;;;;;;;;;5103911;28;20031;-84
2023/08/04 07:09:39;;;;;;;0.10;0.10;;;;;;;;;;5079623;28;20029;-87
2023/08/04 07:12:06;;;;;;;0.00;0.00;;;;;;;;;;5087177;28;20044;-85
2023/08/04 07:14:32;;;;;;;0.10;0.10;;;;;;;;;;5072394;28;20477;-85
2023/08/04 07:16:58;;;;;;;0.00;0.00;;;;;;;;;;5073093;28;20082;-86
2023/08/04 07:19:24;;;;;;;0.10;0.10;;;;;;;;;;5093144;28;20069;-85
2023/08/04 07:21:50;;;;;;;0.10;0.10;;;;;;;;;;5098459;28;20032;-85
2023/08/04 07:24:16;;;;;;;0.00;0.00;;;;;;;;;;5101073;28;20027;-86
2023/08/04 07:26:42;;;;;;;0.10;0.10;;;;;;;;;;5101750;28;20036;-86
2023/08/04 07:29:08;;;;;;;0.10;0.10;;;;;;;;;;5108588;28;20086;-84
2023/08/04 07:31:34;;;;;;;0.10;0.10;;;;;;;;;;5093003;28;20550;-84
2023/08/04 07:34:00;;;;;;;0.08;0.08;;;;;;;;;;5091505;28;20028;-86
2023/08/04 07:36:26;;;;;;;0.03;0.03;;;;;;;;;;5073705;28;20027;-85
2023/08/04 07:38:52;;;;;;;0.00;0.00;;;;;;;;;;5101865;28;20523;-87
2023/08/04 07:41:19;;;;;;;0.08;0.08;;;;;;;;;;5112377;28;20055;-86
2023/08/04 07:43:45;;;;;;;0.03;0.03;;;;;;;;;;5092139;28;20430;-87
2023/08/04 07:46:18;;;;;;;0.10;0.10;;;;;;;;;;5092142;28;20085;-86
2023/08/04 07:48:44;;;;;;;0.15;0.15;;;;;;;;;;5091430;28;20031;-86
2023/08/04 07:51:10;;;;;;;1.13;0.15;;;;;;;;;;5091290;28;20028;-86
2023/08/04 07:53:36;;;;;;;0.00;0.00;;;;;;;;;;5091765;28;20028;-86
2023/08/04 07:56:02;;;;;;;0.15;0.15;;;;;;;;;;5091494;28;20035;-86
2023/08/04 07:58:28;;;;;;;0.10;0.10;;;;;;;;;;5105355;28;20023;-87
2023/08/04 08:00:54;;;;;;;0.10;0.10;;;;;;;;;;5112555;28;20026;-87
2023/08/04 08:03:20;;;;;;;0.00;0.00;;;;;;;;;;5102438;28;20102;-87
2023/08/04 08:05:47;;;;;;;0.10;0.10;;;;;;;;;;5087037;28;20029;-87
2023/08/04 08:08:13;;;;;;;0.00;0.00;;;;;;;;;;5071448;28;20496;-86
2023/08/04 08:10:39;;;;;;;0.00;0.00;;;;;;;;;;5071189;28;20464;-87
2023/08/04 08:13:06;;;;;;;0.00;0.00;;;;;;;;;;5071227;28;20136;-87
2023/08/04 08:15:33;;;;;;;0.00;0.00;;;;;;;;;;5071499;28;20028;-87
2023/08/04 08:17:59;;;;;;;0.10;0.10;;;;;;;;;;5071033;28;20512;-87
2023/08/04 08:20:25;;;;;;;0.00;0.00;;;;;;;;;;5085823;28;20027;-87
2023/08/04 08:22:51;;;;;;;0.00;0.00;;;;;;;;;;5102747;28;20042;-91
2023/08/04 08:25:17;;;;;;;0.10;0.10;;;;;;;;;;5087488;28;20031;-89
2023/08/04 08:27:43;;;;;;;0.00;0.00;;;;;;;;;;5091720;28;20021;-86
2023/08/04 08:30:10;;;;;;;0.00;0.00;;;;;;;;;;5069259;28;20064;-84
2023/08/04 08:32:36;;;;;;;0.13;0.13;;;;;;;;;;5071105;28;20040;-86
2023/08/04 08:35:01;;;;;;;0.20;0.13;;;;;;;;;;5081519;28;20403;-87
2023/08/04 08:37:27;;;;;;;0.22;0.22;;;;;;;;;;5080695;28;20024;-86
2023/08/04 08:39:54;;;;;;;0.20;0.20;;;;;;;;;;5074863;28;20414;-86
2023/08/04 08:42:20;;;;;;;0.10;0.10;;;;;;;;;;5069368;28;20419;-86
2023/08/04 08:44:46;;;;;;;0.10;0.10;;;;;;;;;;5070918;28;20028;-89
2023/08/04 08:47:12;;;;;;;0.20;0.20;;;;;;;;;;5073395;28;20025;-84
2023/08/04 08:49:41;;;;;;;0.08;0.08;;;;;;;;;;5074401;28;20032;-85
2023/08/04 08:52:08;;;;;;;0.10;0.10;;;;;;;;;;5074380;28;20033;-86
2023/08/04 08:54:34;;;;;;;0.10;0.10;;;;;;;;;;5074902;28;20086;-86
2023/08/04 08:57:00;;;;;;;0.05;0.05;;;;;;;;;;5074220;28;20032;-89
2023/08/04 08:59:26;;;;;;;0.10;0.10;;;;;;;;;;5055085;28;20107;-88
2023/08/04 09:01:54;;;;;;;0.10;0.10;;;;;;;;;;5061995;28;20047;-88
2023/08/04 09:04:21;;;;;;;0.10;0.10;;;;;;;;;;5074528;28;20021;-89
2023/08/04 09:06:47;;;;;;;0.10;0.10;;;;;;;;;;5073970;28;20413;-88
2023/08/04 09:09:13;;;;;;;0.30;0.30;;;;;;;;;;5078016;28;20103;-88
2023/08/04 09:11:39;;;;;;;0.10;0.10;;;;;;;;;;5075343;28;20028;-87
2023/08/04 09:14:06;;;;;;;0.00;0.00;;;;;;;;;;5074505;28;20028;-85
2023/08/04 09:16:36;;;;;;;0.10;0.10;;;;;;;;;;5172790;22;20055;-90
2023/08/04 09:19:07;;;;;;;0.10;0.10;;;;;;;;;;4953727;29;20023;-86
2023/08/04 09:21:33;;;;;;;0.10;0.10;;;;;;;;;;4953078;28;20024;-86
2023/08/04 09:23:59;;;;;;;0.20;0.20;;;;;;;;;;4952873;28;20039;-86
2023/08/04 09:26:25;;;;;;;0.32;0.15;;;;;;;;;;4952830;28;20046;-88
2023/08/04 09:29:04;;;;;;;0.20;0.20;;;;;;;;;;4951865;28;20038;-86
2023/08/04 09:31:37;;;;;;;0.17;0.10;;;;;;;;;;4952934;28;20039;-87
2023/08/04 09:34:04;;;;;;;0.10;0.10;;;;;;;;;;4952955;29;20023;-86
2023/08/04 09:36:30;;;;;;;0.10;0.10;;;;;;;;;;4951275;28;20427;-84
2023/08/04 09:39:04;;;;;;;0.10;0.10;;;;;;;;;;4947083;28;20027;-83
2023/08/04 09:41:32;;;;;;;0.10;0.10;;;;;;;;;;4987794;28;20036;-84
2023/08/04 09:44:03;;;;;;;0.30;0.30;;;;;;;;;;4943903;28;20404;-85
2023/08/04 09:46:29;;;;;;;0.00;0.00;;;;;;;;;;4949281;29;20038;-84
2023/08/04 09:48:58;;;;;;;0.30;0.30;;;;;;;;;;4952701;28;20035;-83
2023/08/04 09:51:24;;;;;;;0.00;0.00;;;;;;;;;;4952399;29;20492;-82
2023/08/04 09:53:51;;;;;;;0.10;0.10;;;;;;;;;;4953093;29;20031;-83
2023/08/04 09:56:18;;;;;;;0.00;0.00;;;;;;;;;;4942103;28;20031;-83
2023/08/04 09:58:44;;;;;;;0.35;0.20;;;;;;;;;;4948996;28;20107;-84
2023/08/04 10:01:11;;;;;;;0.10;0.10;;;;;;;;;;4953759;28;20027;-85
2023/08/04 10:03:37;;;;;;;0.05;0.05;;;;;;;;;;4935430;28;20463;-84
2023/08/04 10:06:03;;;;;;;0.10;0.10;;;;;;;;;;4948381;28;20074;-87
2023/08/04 10:08:30;;;;;;;0.10;0.10;;;;;;;;;;4953397;29;20023;-92
2023/08/04 10:10:57;;;;;;;0.00;0.00;;;;;;;;;;4940718;29;20114;-88
2023/08/04 10:13:25;;;;;;;0.00;0.00;;;;;;;;;;4950469;28;20039;-87
2023/08/04 10:15:51;;;;;;;0.10;0.10;;;;;;;;;;4951305;28;20059;-87
2023/08/04 10:18:17;;;;;;;0.20;0.20;;;;;;;;;;4950407;28;20081;-89
2023/08/04 10:20:43;;;;;;;0.10;0.10;;;;;;;;;;4950026;29;20031;-89
2023/08/04 10:23:11;;;;;;;0.00;0.00;;;;;;;;;;4952687;28;20026;-85
2023/08/04 10:25:37;;;;;;;0.10;0.10;;;;;;;;;;4951096;28;20050;-86
2023/08/04 10:28:04;;;;;;;0.22;0.22;;;;;;;;;;4959576;28;20062;-83
2023/08/04 10:30:30;;;;;;;0.00;0.00;;;;;;;;;;4951895;28;20480;-84
2023/08/04 10:33:10;;;;;;;0.10;0.10;;;;;;;;;;4934376;28;20062;-89
2023/08/04 10:35:55;;;;;;;0.70;0.20;;;;;;;;;;4946872;29;20032;-83
2023/08/04 10:38:21;;;;;;;0.13;0.13;;;;;;;;;;4951819;28;20500;-85
2023/08/04 10:40:47;;;;;;;0.10;0.10;;;;;;;;;;4952646;28;20030;-84
2023/08/04 10:43:20;;;;;;;0.20;0.20;;;;;;;;;;4949360;28;20392;-86
2023/08/04 10:46:03;;;;;;;2.90;0.22;;;;;;;;;;4932676;29;20036;-83
2023/08/04 10:48:29;;;;;;;0.10;0.10;;;;;;;;;;4932704;29;20090;-84
2023/08/04 10:50:55;;;;;;;0.00;0.00;;;;;;;;;;4934282;29;20059;-84
2023/08/04 10:53:21;;;;;;;0.25;0.25;;;;;;;;;;4952328;29;20168;-85
2023/08/04 10:55:51;;;;;;;0.20;0.20;;;;;;;;;;4942046;29;20115;-83
2023/08/04 10:58:17;;;;;;;0.15;0.15;;;;;;;;;;4951014;29;20055;-83
2023/08/04 11:00:44;;;;;;;0.17;0.17;;;;;;;;;;4952278;28;20116;-84
2023/08/04 11:03:18;;;;;;;0.20;0.20;;;;;;;;;;4951473;28;20154;-84
2023/08/04 11:05:44;;;;;;;0.13;0.13;;;;;;;;;;4954587;28;20179;-85
2023/08/04 11:08:10;;;;;;;0.20;0.20;;;;;;;;;;4962224;28;20066;-84
2023/08/04 11:10:36;;;;;;;1.42;0.60;;;;;;;;;;4951248;28;20065;-84
2023/08/04 11:13:02;;;;;;;0.35;0.30;;;;;;;;;;4955506;28;20039;-83
2023/08/04 11:15:28;;;;;;;0.35;0.35;;;;;;;;;;4955247;28;20051;-85
2023/08/04 11:17:54;;;;;;;0.20;0.20;;;;;;;;;;4950696;28;20045;-85
2023/08/04 11:20:20;;;;;;;0.00;0.00;;;;;;;;;;4943610;28;20057;-86
2023/08/04 11:22:46;;;;;;;0.25;0.20;;;;;;;;;;4951586;28;20149;-87
2023/08/04 11:25:12;;;;;;;0.15;0.15;;;;;;;;;;4951373;28;20102;-87
2023/08/04 11:27:38;;;;;;;0.30;0.13;;;;;;;;;;4968138;28;20060;-86
2023/08/04 11:30:05;;;;;;;0.20;0.20;;;;;;;;;;4964267;28;20588;-86
2023/08/04 11:32:31;;;;;;;0.10;0.10;;;;;;;;;;4950936;29;20035;-87
2023/08/04 11:34:57;;;;;;;0.20;0.20;;;;;;;;;;4953275;28;20077;-87
2023/08/04 11:37:23;;;;;;;0.80;0.35;;;;;;;;;;4950544;29;20035;-82
2023/08/04 11:39:49;;;;;;;0.52;0.20;;;;;;;;;;4933761;29;20026;-82
2023/08/04 11:42:15;;;;;;;0.10;0.10;;;;;;;;;;4932192;29;20036;-82
2023/08/04 11:44:45;;;;;;;0.22;0.10;;;;;;;;;;4949097;28;20031;-82
2023/08/04 11:47:11;;;;;;;0.00;0.00;;;;;;;;;;4951034;29;20031;-82
2023/08/04 11:49:39;;;;;;;0.10;0.10;;;;;;;;;;4940388;28;20496;-82
2023/08/04 11:52:11;;;;;;;0.40;0.40;;;;;;;;;;4932984;29;20329;-82
2023/08/04 11:54:50;;;;;;;0.10;0.10;;;;;;;;;;4932574;29;20369;-82
2023/08/04 11:57:18;;;;;;;0.08;0.08;;;;;;;;;;4936710;29;20042;-82
2023/08/04 11:59:47;;;;;;;0.10;0.10;;;;;;;;;;4951960;29;20073;-82
2023/08/04 12:02:13;;;;;;;0.17;0.17;;;;;;;;;;4950691;28;20055;-82
2023/08/04 12:04:39;;;;;;;1.65;0.28;;;;;;;;;;4948293;28;20058;-82
2023/08/04 12:07:06;;;;;;;0.10;0.10;;;;;;;;;;4949034;29;20454;-82
2023/08/04 12:09:33;;;;;;;0.10;0.10;;;;;;;;;;4940913;28;20480;-82
2023/08/04 12:11:59;;;;;;;0.00;0.00;;;;;;;;;;4934220;29;20036;-81
2023/08/04 12:14:25;;;;;;;4.57;0.95;;;;;;;;;;4951453;28;20023;-82
2023/08/04 12:17:01;;;;;;;0.10;0.10;;;;;;;;;;4940257;29;20048;-82
2023/08/04 12:19:28;;;;;;;0.10;0.10;;;;;;;;;;4943098;28;20094;-82
2023/08/04 12:21:59;;;;;;;0.00;0.00;;;;;;;;;;4935222;29;20047;-82
2023/08/04 12:24:25;;;;;;;4.30;0.75;;;;;;;;;;4947597;28;20050;-82
2023/08/04 12:26:52;;;;;;;0.10;0.10;;;;;;;;;;4936729;28;20491;-82
2023/08/04 12:29:18;;;;;;;0.00;0.00;;;;;;;;;;4935188;29;20455;-82
2023/08/04 12:31:44;;;;;;;0.10;0.10;;;;;;;;;;4934810;29;20040;-82
2023/08/04 12:34:10;;;;;;;0.88;0.55;;;;;;;;;;4934837;29;20089;-81
2023/08/04 12:36:37;;;;;;;0.17;0.17;;;;;;;;;;4934820;29;20463;-82
2023/08/04 12:39:08;;;;;;;0.00;0.00;;;;;;;;;;4952225;29;20034;-81
2023/08/04 12:41:34;;;;;;;0.10;0.10;;;;;;;;;;4950167;28;20059;-82
2023/08/04 12:44:00;;;;;;;0.80;0.25;;;;;;;;;;4943588;29;20024;-81
2023/08/04 12:46:26;;;;;;;0.45;0.45;;;;;;;;;;4943466;28;20036;-82
2023/08/04 12:48:56;;;;;;;0.10;0.10;;;;;;;;;;4941417;29;20024;-82
2023/08/04 12:51:22;;;;;;;0.00;0.00;;;;;;;;;;4953908;28;20031;-82
2023/08/04 12:53:48;;;;;;;0.10;0.10;;;;;;;;;;4949947;28;20035;-81
2023/08/04 12:56:14;;;;;;;0.10;0.10;;;;;;;;;;4934918;29;20388;-81
2023/08/04 12:58:40;;;;;;;0.10;0.10;;;;;;;;;;4949377;29;20506;-82
2023/08/04 13:01:06;;;;;;;0.10;0.10;;;;;;;;;;4934589;29;20039;-82
2023/08/04 13:03:32;;;;;;;0.08;0.08;;;;;;;;;;4934844;29;20031;-81
2023/08/04 13:05:58;;;;;;;0.10;0.10;;;;;;;;;;4943555;28;20039;-82
2023/08/04 13:08:24;;;;;;;0.20;0.20;;;;;;;;;;4949133;28;20032;-82
2023/08/04 13:10:50;;;;;;;0.20;0.20;;;;;;;;;;4934437;29;20186;-81
2023/08/04 13:13:17;;;;;;;0.20;0.20;;;;;;;;;;4950986;29;20039;-82
2023/08/04 13:15:43;;;;;;;0.00;0.00;;;;;;;;;;4953224;29;20526;-82
2023/08/04 13:18:09;;;;;;;0.10;0.10;;;;;;;;;;4951528;29;20399;-82
2023/08/04 13:20:38;;;;;;;0.00;0.00;;;;;;;;;;4953645;28;20177;-82
2023/08/04 13:23:04;;;;;;;0.00;0.00;;;;;;;;;;4953100;28;20032;-81
2023/08/04 13:25:34;;;;;;;0.10;0.10;;;;;;;;;;4951770;29;20046;-82
2023/08/04 13:28:00;;;;;;;0.05;0.03;;;;;;;;;;4953163;29;20582;-81
2023/08/04 13:30:26;;;;;;;0.10;0.10;;;;;;;;;;4948721;29;20046;-81
2023/08/04 13:32:52;;;;;;;0.10;0.10;;;;;;;;;;4952266;29;20476;-82
2023/08/04 13:35:18;;;;;;;0.10;0.10;;;;;;;;;;4938630;29;20044;-81
2023/08/04 13:37:44;;;;;;;0.20;0.20;;;;;;;;;;4935177;29;20066;-82
2023/08/04 13:40:10;;;;;;;0.52;0.32;;;;;;;;;;4952010;29;20056;-82
2023/08/04 13:42:36;;;;;;;0.22;0.22;;;;;;;;;;4952850;29;20566;-82
2023/08/04 13:45:02;;;;;;;0.35;0.13;;;;;;;;;;4934601;29;20120;-82
2023/08/04 13:47:28;;;;;;;0.20;0.20;;;;;;;;;;4938108;29;20293;-81
2023/08/04 13:49:54;;;;;;;0.10;0.10;;;;;;;;;;4953502;29;20035;-81
2023/08/04 13:52:20;;;;;;;0.55;0.10;;;;;;;;;;4951436;29;20031;-82
2023/08/04 13:54:46;;;;;;;0.00;0.00;;;;;;;;;;4940730;28;20036;-82
2023/08/04 13:57:12;;;;;;;0.10;0.10;;;;;;;;;;4935173;29;20023;-82
2023/08/04 13:59:38;;;;;;;0.10;0.10;;;;;;;;;;4953232;29;20031;-81
2023/08/04 14:02:05;;;;;;;0.10;0.10;;;;;;;;;;4951098;29;20093;-82
2023/08/04 14:04:31;;;;;;;0.22;0.20;;;;;;;;;;4934170;29;20062;-82
2023/08/04 14:06:58;;;;;;;0.03;0.03;;;;;;;;;;4951001;28;20059;-82
2023/08/04 14:09:24;;;;;;;0.10;0.10;;;;;;;;;;4945068;29;20105;-82
2023/08/04 14:11:50;;;;;;;0.03;0.03;;;;;;;;;;4952132;29;20062;-82
2023/08/04 14:14:16;;;;;;;0.10;0.10;;;;;;;;;;4950890;29;20059;-82
2023/08/04 14:16:42;;;;;;;0.10;0.10;;;;;;;;;;4952755;29;20093;-82
2023/08/04 14:19:08;;;;;;;0.10;0.10;;;;;;;;;;4933908;29;20063;-82
2023/08/04 14:21:34;;;;;;;0.10;0.10;;;;;;;;;;4933642;29;20059;-82
2023/08/04 14:24:00;;;;;;;0.08;0.08;;;;;;;;;;4936926;28;20032;-82
2023/08/04 14:26:26;;;;;;;0.20;0.20;;;;;;;;;;4933351;29;20082;-81
2023/08/04 14:28:52;;;;;;;0.03;0.03;;;;;;;;;;4933448;29;20055;-82
2023/08/04 14:31:18;;;;;;;0.10;0.10;;;;;;;;;;4951915;28;20073;-82
2023/08/04 14:33:44;;;;;;;0.00;0.00;;;;;;;;;;4952528;28;20089;-82
2023/08/04 14:36:10;;;;;;;0.40;0.30;;;;;;;;;;4950888;28;20088;-82
2023/08/04 14:38:36;;;;;;;0.10;0.10;;;;;;;;;;4947083;28;20040;-82
2023/08/04 14:41:02;;;;;;;0.03;0.03;;;;;;;;;;4933337;29;20494;-82